Time;durP1;ratioP1;P1;durP2;ratioP2;P2;SDS_P1;SDS_P2;PMS_P1;PMS_P2;Temp;Humidity;BMP_temperature;BMP_pressure;BME280_temperature;BME280_humidity;BME280_pressure;Samples;Min_cycle;Max_cycle;Signal;HPM_P1;HPM_P2
2020/07/23 00:02:34;;;;;;;1.75;1.60;;;;;;;21.55;60.88;100540.53;;;;-56
2020/07/23 00:05:34;;;;;;;1.77;1.67;;;;;;;21.55;60.90;100540.62;;;;-56
2020/07/23 00:08:34;;;;;;;1.72;1.60;;;;;;;21.54;60.88;100540.47;;;;-56
2020/07/23 00:11:34;;;;;;;1.75;1.60;;;;;;;21.54;60.85;100541.61;;;;-56
2020/07/23 00:14:34;;;;;;;3.34;1.64;;;;;;;21.54;60.86;100546.39;;;;-56
2020/07/23 00:17:34;;;;;;;1.77;1.65;;;;;;;21.54;60.85;100546.55;;;;-56
2020/07/23 00:20:34;;;;;;;1.84;1.66;;;;;;;21.53;60.88;100547.30;;;;-57
2020/07/23 00:23:34;;;;;;;1.51;1.41;;;;;;;21.52;60.87;100546.42;;;;-57
2020/07/23 00:26:34;;;;;;;2.23;1.66;;;;;;;21.52;60.91;100543.06;;;;-57
2020/07/23 00:29:34;;;;;;;1.71;1.61;;;;;;;21.52;60.89;100535.55;;;;-56
2020/07/23 00:32:34;;;;;;;2.30;1.73;;;;;;;21.51;60.94;100538.66;;;;-56
2020/07/23 00:35:34;;;;;;;1.54;1.40;;;;;;;21.51;60.93;100535.80;;;;-56
2020/07/23 00:38:34;;;;;;;1.69;1.57;;;;;;;21.51;60.92;100540.70;;;;-57
2020/07/23 00:41:34;;;;;;;1.82;1.63;;;;;;;21.51;60.90;100538.67;;;;-57
2020/07/23 00:44:34;;;;;;;1.90;1.62;;;;;;;21.50;60.93;100540.06;;;;-57
2020/07/23 00:47:35;;;;;;;2.03;1.62;;;;;;;21.50;60.94;100545.58;;;;-57
2020/07/23 00:50:34;;;;;;;2.91;1.83;;;;;;;21.50;60.93;100545.69;;;;-57
2020/07/23 00:53:34;;;;;;;2.02;1.53;;;;;;;21.49;60.94;100540.70;;;;-56
2020/07/23 00:56:34;;;;;;;1.70;1.60;;;;;;;21.48;60.96;100536.63;;;;-56
2020/07/23 00:59:34;;;;;;;1.65;1.55;;;;;;;21.49;60.94;100538.91;;;;-56
2020/07/23 01:02:34;;;;;;;1.77;1.67;;;;;;;21.48;60.95;100538.59;;;;-57
2020/07/23 01:05:34;;;;;;;2.07;1.63;;;;;;;21.47;60.95;100539.72;;;;-56
2020/07/23 01:08:34;;;;;;;1.64;1.50;;;;;;;21.47;60.98;100545.10;;;;-57
2020/07/23 01:11:34;;;;;;;1.99;1.60;;;;;;;21.47;60.93;100541.20;;;;-56
2020/07/23 01:14:34;;;;;;;1.53;1.43;;;;;;;21.47;60.94;100537.94;;;;-57
2020/07/23 01:17:34;;;;;;;1.61;1.51;;;;;;;21.46;61.00;100538.84;;;;-56
2020/07/23 01:20:34;;;;;;;1.58;1.48;;;;;;;21.46;60.99;100536.55;;;;-56
2020/07/23 01:23:34;;;;;;;1.83;1.63;;;;;;;21.46;60.98;100531.56;;;;-56
2020/07/23 01:26:34;;;;;;;1.66;1.56;;;;;;;21.46;60.97;100534.19;;;;-57
2020/07/23 01:29:34;;;;;;;2.34;1.50;;;;;;;21.45;61.01;100531.41;;;;-56
2020/07/23 01:32:34;;;;;;;1.97;1.63;;;;;;;21.45;60.96;100530.91;;;;-57
2020/07/23 01:35:34;;;;;;;1.72;1.42;;;;;;;21.44;60.98;100527.26;;;;-57
2020/07/23 01:38:34;;;;;;;1.52;1.42;;;;;;;21.44;60.94;100525.64;;;;-56
2020/07/23 01:41:34;;;;;;;1.60;1.50;;;;;;;21.44;61.01;100524.58;;;;-56
2020/07/23 01:44:34;;;;;;;1.55;1.41;;;;;;;21.44;60.98;100531.83;;;;-56
2020/07/23 01:47:34;;;;;;;1.72;1.55;;;;;;;21.43;61.00;100527.58;;;;-56
2020/07/23 01:50:34;;;;;;;1.61;1.43;;;;;;;21.43;60.96;100528.63;;;;-57
2020/07/23 01:53:34;;;;;;;1.73;1.63;;;;;;;21.43;61.00;100525.95;;;;-56
2020/07/23 01:56:34;;;;;;;1.60;1.50;;;;;;;21.42;60.99;100531.34;;;;-57
2020/07/23 01:59:35;;;;;;;1.62;1.52;;;;;;;21.43;60.97;100527.17;;;;-56
2020/07/23 02:02:34;;;;;;;1.51;1.41;;;;;;;21.42;61.00;100526.69;;;;-57
2020/07/23 02:05:34;;;;;;;1.60;1.50;;;;;;;21.41;60.97;100527.22;;;;-56
2020/07/23 02:08:34;;;;;;;1.63;1.50;;;;;;;21.41;61.01;100525.75;;;;-56
2020/07/23 02:11:34;;;;;;;1.45;1.35;;;;;;;21.41;60.98;100521.50;;;;-56
2020/07/23 02:14:34;;;;;;;1.81;1.60;;;;;;;21.41;60.96;100522.81;;;;-56
2020/07/23 02:17:34;;;;;;;1.57;1.47;;;;;;;21.40;60.96;100517.36;;;;-56
2020/07/23 02:20:34;;;;;;;1.67;1.50;;;;;;;21.41;60.97;100518.17;;;;-56
2020/07/23 02:23:34;;;;;;;1.60;1.50;;;;;;;21.41;60.97;100513.11;;;;-56
2020/07/23 02:26:34;;;;;;;1.95;1.60;;;;;;;21.40;60.95;100514.59;;;;-57
2020/07/23 02:29:34;;;;;;;1.71;1.53;;;;;;;21.40;61.03;100515.81;;;;-56
2020/07/23 02:32:34;;;;;;;1.74;1.61;;;;;;;21.40;60.97;100518.27;;;;-56
2020/07/23 02:35:34;;;;;;;1.51;1.41;;;;;;;21.40;61.02;100521.05;;;;-57
2020/07/23 02:38:34;;;;;;;1.60;1.50;;;;;;;21.39;61.02;100513.60;;;;-56
2020/07/23 02:41:34;;;;;;;1.61;1.51;;;;;;;21.39;61.02;100515.56;;;;-56
2020/07/23 02:44:34;;;;;;;1.59;1.49;;;;;;;21.39;61.05;100512.46;;;;-57
2020/07/23 02:47:34;;;;;;;1.81;1.46;;;;;;;21.38;61.01;100514.59;;;;-56
2020/07/23 02:50:34;;;;;;;1.70;1.60;;;;;;;21.39;61.04;100515.65;;;;-56
2020/07/23 02:53:34;;;;;;;1.51;1.41;;;;;;;21.38;61.05;100514.52;;;;-57
2020/07/23 02:56:34;;;;;;;1.63;1.53;;;;;;;21.38;61.04;100514.11;;;;-56
2020/07/23 02:59:34;;;;;;;1.50;1.40;;;;;;;21.38;61.05;100515.02;;;;-57
2020/07/23 03:02:34;;;;;;;1.60;1.50;;;;;;;21.38;61.06;100512.64;;;;-56
2020/07/23 03:05:34;;;;;;;2.45;1.48;;;;;;;21.37;61.05;100516.38;;;;-56
2020/07/23 03:08:34;;;;;;;1.58;1.48;;;;;;;21.37;61.04;100514.94;;;;-57
2020/07/23 03:11:34;;;;;;;1.59;1.38;;;;;;;21.37;61.04;100515.16;;;;-56
2020/07/23 03:14:34;;;;;;;1.60;1.50;;;;;;;21.37;61.07;100515.97;;;;-56
2020/07/23 03:17:34;;;;;;;1.59;1.47;;;;;;;21.36;61.07;100512.23;;;;-57
2020/07/23 03:20:34;;;;;;;1.57;1.47;;;;;;;21.37;61.02;100518.58;;;;-56
2020/07/23 03:23:34;;;;;;;1.57;1.47;;;;;;;21.36;61.08;100524.38;;;;-57
2020/07/23 03:26:34;;;;;;;1.83;1.51;;;;;;;21.36;61.07;100530.25;;;;-56
2020/07/23 03:29:34;;;;;;;2.14;1.45;;;;;;;21.35;61.08;100529.17;;;;-57
2020/07/23 03:32:34;;;;;;;1.60;1.50;;;;;;;21.35;61.06;100529.91;;;;-56
2020/07/23 03:35:34;;;;;;;1.55;1.45;;;;;;;21.35;61.07;100528.84;;;;-56
2020/07/23 03:38:34;;;;;;;1.57;1.47;;;;;;;21.35;61.06;100527.30;;;;-57
2020/07/23 03:41:34;;;;;;;1.95;1.41;;;;;;;21.34;61.07;100527.47;;;;-56
2020/07/23 03:44:34;;;;;;;1.88;1.51;;;;;;;21.34;61.04;100528.78;;;;-56
2020/07/23 03:47:34;;;;;;;1.57;1.47;;;;;;;21.34;61.09;100529.42;;;;-56
2020/07/23 03:50:34;;;;;;;1.43;1.31;;;;;;;21.34;61.07;100527.23;;;;-56
2020/07/23 03:53:34;;;;;;;1.85;1.59;;;;;;;21.33;61.08;100526.51;;;;-56
2020/07/23 03:56:34;;;;;;;1.67;1.52;;;;;;;21.33;61.09;100528.03;;;;-56
2020/07/23 03:59:34;;;;;;;1.69;1.59;;;;;;;21.33;61.09;100529.98;;;;-57
2020/07/23 04:02:34;;;;;;;1.64;1.54;;;;;;;21.33;61.08;100528.12;;;;-56
2020/07/23 04:05:34;;;;;;;1.58;1.48;;;;;;;21.33;61.10;100531.94;;;;-57
2020/07/23 04:08:34;;;;;;;1.60;1.50;;;;;;;21.33;61.09;100534.40;;;;-57
2020/07/23 04:11:34;;;;;;;1.51;1.40;;;;;;;21.32;61.10;100536.85;;;;-56
2020/07/23 04:14:34;;;;;;;1.66;1.55;;;;;;;21.32;61.11;100535.39;;;;-57
2020/07/23 04:17:34;;;;;;;1.74;1.60;;;;;;;21.32;61.12;100534.09;;;;-56
2020/07/23 04:20:34;;;;;;;1.64;1.54;;;;;;;21.32;61.11;100535.30;;;;-57
2020/07/23 04:23:34;;;;;;;1.71;1.60;;;;;;;21.31;61.12;100534.98;;;;-56
2020/07/23 04:26:34;;;;;;;3.91;2.77;;;;;;;20.89;55.92;100538.68;;;;-64
2020/07/23 04:29:34;;;;;;;6.75;3.27;;;;;;;20.52;55.79;100538.16;;;;-56
2020/07/23 04:32:34;;;;;;;5.70;3.19;;;;;;;20.29;56.09;100535.48;;;;-61
2020/07/23 04:35:34;;;;;;;5.19;3.02;;;;;;;20.06;56.02;100535.69;;;;-61
2020/07/23 04:38:34;;;;;;;4.36;3.45;;;;;;;19.88;56.50;100536.31;;;;-61
2020/07/23 04:41:34;;;;;;;4.41;2.98;;;;;;;19.82;56.49;100536.55;;;;-57
2020/07/23 04:44:34;;;;;;;6.99;3.46;;;;;;;19.76;56.26;100537.48;;;;-52
2020/07/23 04:47:34;;;;;;;9.53;3.58;;;;;;;19.62;56.50;100536.63;;;;-53
2020/07/23 04:50:34;;;;;;;5.77;3.42;;;;;;;19.48;56.88;100540.41;;;;-52
2020/07/23 04:53:34;;;;;;;8.28;3.44;;;;;;;19.45;56.71;100538.69;;;;-52
2020/07/23 04:56:34;;;;;;;5.68;3.51;;;;;;;19.43;56.92;100542.09;;;;-52
2020/07/23 04:59:34;;;;;;;8.55;3.42;;;;;;;19.29;57.21;100536.85;;;;-52
2020/07/23 05:02:34;;;;;;;8.93;3.60;;;;;;;19.27;57.25;100538.70;;;;-51
2020/07/23 05:05:34;;;;;;;8.03;3.41;;;;;;;19.26;57.01;100540.82;;;;-51
2020/07/23 05:08:34;;;;;;;5.93;3.14;;;;;;;19.23;57.14;100542.81;;;;-52
2020/07/23 05:11:34;;;;;;;6.47;3.21;;;;;;;19.20;57.22;100544.83;;;;-52
2020/07/23 05:14:34;;;;;;;6.41;3.24;;;;;;;19.24;57.06;100541.62;;;;-51
2020/07/23 05:17:34;;;;;;;7.10;2.93;;;;;;;19.42;57.26;100547.02;;;;-57
2020/07/23 05:20:34;;;;;;;4.91;2.81;;;;;;;19.58;57.11;100544.39;;;;-51
2020/07/23 05:23:34;;;;;;;3.77;2.64;;;;;;;19.71;57.14;100543.05;;;;-57
2020/07/23 05:26:34;;;;;;;4.30;2.74;;;;;;;19.81;57.23;100539.86;;;;-52
2020/07/23 05:29:34;;;;;;;3.08;2.45;;;;;;;19.89;57.42;100543.57;;;;-56
2020/07/23 05:32:34;;;;;;;3.09;2.33;;;;;;;19.95;57.58;100545.08;;;;-51
2020/07/23 05:35:34;;;;;;;5.03;2.52;;;;;;;20.01;57.64;100545.59;;;;-57
2020/07/23 05:38:34;;;;;;;2.97;2.47;;;;;;;20.07;57.68;100543.77;;;;-52
2020/07/23 05:41:34;;;;;;;3.75;2.49;;;;;;;20.10;57.82;100545.31;;;;-62
2020/07/23 05:44:34;;;;;;;4.25;2.30;;;;;;;20.14;57.86;100543.78;;;;-52
2020/07/23 05:47:34;;;;;;;2.74;2.20;;;;;;;20.17;57.98;100545.77;;;;-52
2020/07/23 05:50:34;;;;;;;3.67;2.35;;;;;;;20.21;58.03;100542.18;;;;-52
2020/07/23 05:53:34;;;;;;;3.09;2.27;;;;;;;20.23;58.09;100541.86;;;;-52
2020/07/23 05:56:34;;;;;;;3.01;2.29;;;;;;;20.25;58.13;100542.96;;;;-52
2020/07/23 05:59:34;;;;;;;3.71;2.21;;;;;;;20.28;58.14;100543.45;;;;-52
2020/07/23 06:02:34;;;;;;;2.95;2.32;;;;;;;20.29;58.23;100538.47;;;;-52
2020/07/23 06:05:34;;;;;;;3.47;2.39;;;;;;;20.32;58.31;100540.54;;;;-62
2020/07/23 06:08:34;;;;;;;2.31;2.11;;;;;;;20.33;58.31;100535.08;;;;-57
2020/07/23 06:11:35;;;;;;;2.35;2.00;;;;;;;20.34;58.38;100533.39;;;;-56
2020/07/23 06:14:34;;;;;;;3.25;2.31;;;;;;;20.36;58.41;100535.27;;;;-51
2020/07/23 06:17:34;;;;;;;3.22;2.18;;;;;;;20.37;58.48;100534.77;;;;-52
2020/07/23 06:20:34;;;;;;;3.15;2.17;;;;;;;20.38;58.54;100531.91;;;;-52
2020/07/23 06:23:34;;;;;;;4.89;2.26;;;;;;;20.40;58.59;100534.31;;;;-52
2020/07/23 06:26:34;;;;;;;3.07;2.09;;;;;;;20.40;58.64;100532.52;;;;-53
2020/07/23 06:29:34;;;;;;;2.23;2.03;;;;;;;20.41;58.70;100537.63;;;;-52
2020/07/23 06:32:34;;;;;;;2.96;2.12;;;;;;;20.43;58.69;100535.78;;;;-52
2020/07/23 06:35:34;;;;;;;2.47;2.21;;;;;;;20.43;58.75;100530.39;;;;-53
2020/07/23 06:38:34;;;;;;;2.46;2.05;;;;;;;20.45;58.78;100531.87;;;;-53
2020/07/23 06:41:34;;;;;;;2.27;2.00;;;;;;;20.44;58.83;100534.00;;;;-52
2020/07/23 06:44:34;;;;;;;2.97;2.16;;;;;;;20.45;58.83;100536.18;;;;-52
2020/07/23 06:47:34;;;;;;;2.29;2.09;;;;;;;20.46;58.87;100534.41;;;;-52
2020/07/23 06:50:34;;;;;;;2.47;2.17;;;;;;;20.47;58.94;100534.73;;;;-52
2020/07/23 06:53:34;;;;;;;2.88;2.10;;;;;;;20.48;58.96;100535.20;;;;-53
2020/07/23 06:56:34;;;;;;;2.91;2.04;;;;;;;20.49;58.97;100533.52;;;;-52
2020/07/23 06:59:34;;;;;;;2.68;2.22;;;;;;;20.49;59.01;100532.37;;;;-52
2020/07/23 07:02:34;;;;;;;2.73;2.09;;;;;;;20.50;59.02;100531.47;;;;-52
2020/07/23 07:05:34;;;;;;;3.96;2.22;;;;;;;20.51;59.06;100528.97;;;;-52
2020/07/23 07:08:35;;;;;;;2.21;2.01;;;;;;;20.52;59.04;100530.09;;;;-52
2020/07/23 07:11:34;;;;;;;2.45;2.03;;;;;;;20.52;59.06;100529.28;;;;-52
2020/07/23 07:14:34;;;;;;;2.39;2.04;;;;;;;20.53;59.10;100534.83;;;;-52
2020/07/23 07:17:34;;;;;;;2.33;1.90;;;;;;;20.54;59.11;100535.39;;;;-52
2020/07/23 07:20:34;;;;;;;3.33;2.09;;;;;;;20.54;59.16;100533.59;;;;-52
2020/07/23 07:23:34;;;;;;;2.11;1.90;;;;;;;20.54;59.17;100538.92;;;;-52
2020/07/23 07:26:34;;;;;;;2.34;2.09;;;;;;;20.56;59.18;100536.13;;;;-53
2020/07/23 07:29:34;;;;;;;2.17;1.89;;;;;;;20.57;59.36;100531.91;;;;-54
2020/07/23 07:32:34;;;;;;;3.01;1.98;;;;;;;20.60;59.52;100528.19;;;;-55
2020/07/23 07:35:34;;;;;;;5.83;2.33;;;;;;;20.64;59.55;100520.80;;;;-50
2020/07/23 07:38:35;;;;;;;9.98;2.25;;;;;;;20.68;59.42;100518.61;;;;-58
2020/07/23 07:41:34;;;;;;;8.75;2.50;;;;;;;20.69;59.66;100520.39;;;;-59
2020/07/23 07:44:34;;;;;;;4.78;2.17;;;;;;;20.71;59.79;100522.22;;;;-60
2020/07/23 07:47:34;;;;;;;5.67;2.15;;;;;;;20.72;59.25;100522.85;;;;-58
2020/07/23 07:50:34;;;;;;;5.23;2.03;;;;;;;20.71;59.42;100520.59;;;;-57
2020/07/23 07:53:34;;;;;;;4.92;1.90;;;;;;;20.71;59.52;100519.53;;;;-58
2020/07/23 07:56:34;;;;;;;6.12;2.19;;;;;;;20.71;59.53;100516.19;;;;-57
2020/07/23 07:59:35;;;;;;;3.16;2.13;;;;;;;20.72;59.50;100517.97;;;;-58
2020/07/23 08:02:34;;;;;;;2.59;1.81;;;;;;;20.72;59.48;100519.36;;;;-58
2020/07/23 08:05:34;;;;;;;2.67;1.97;;;;;;;20.72;59.48;100516.83;;;;-58
2020/07/23 08:08:34;;;;;;;2.37;1.89;;;;;;;20.73;59.48;100514.70;;;;-57
2020/07/23 08:11:34;;;;;;;2.72;2.02;;;;;;;20.73;59.48;100513.48;;;;-58
2020/07/23 08:14:34;;;;;;;3.11;2.16;;;;;;;20.73;59.48;100508.19;;;;-58
2020/07/23 08:17:34;;;;;;;3.30;1.94;;;;;;;20.73;59.47;100510.14;;;;-58
2020/07/23 08:20:34;;;;;;;4.05;1.81;;;;;;;20.73;59.46;100508.05;;;;-58
2020/07/23 08:23:34;;;;;;;3.51;1.99;;;;;;;20.74;59.47;100505.44;;;;-59
2020/07/23 08:26:34;;;;;;;3.63;2.05;;;;;;;20.74;59.51;100506.01;;;;-59
2020/07/23 08:29:34;;;;;;;3.23;2.07;;;;;;;20.74;59.47;100498.26;;;;-58
2020/07/23 08:32:34;;;;;;;2.93;2.20;;;;;;;20.75;59.42;100496.00;;;;-58
2020/07/23 08:35:34;;;;;;;2.69;1.94;;;;;;;20.75;59.43;100497.30;;;;-58
2020/07/23 08:38:34;;;;;;;3.69;2.03;;;;;;;20.75;59.50;100495.34;;;;-59
2020/07/23 08:41:34;;;;;;;3.21;1.80;;;;;;;20.76;59.49;100496.64;;;;-58
2020/07/23 08:44:34;;;;;;;2.70;1.85;;;;;;;20.76;59.48;100497.21;;;;-58
2020/07/23 08:47:34;;;;;;;3.08;1.91;;;;;;;20.76;59.49;100492.89;;;;-59
2020/07/23 08:50:34;;;;;;;3.19;1.90;;;;;;;20.76;59.48;100490.45;;;;-58
2020/07/23 08:53:34;;;;;;;2.45;1.88;;;;;;;20.77;59.45;100485.17;;;;-57
2020/07/23 08:56:34;;;;;;;1.92;1.79;;;;;;;20.78;59.47;100486.14;;;;-58
2020/07/23 08:59:34;;;;;;;2.05;1.85;;;;;;;20.78;59.49;100484.67;;;;-58
2020/07/23 09:02:34;;;;;;;3.14;1.85;;;;;;;20.78;59.48;100485.82;;;;-57
2020/07/23 09:05:34;;;;;;;2.28;1.89;;;;;;;20.78;59.48;100483.29;;;;-59
2020/07/23 09:08:34;;;;;;;3.07;1.87;;;;;;;20.80;59.64;100480.11;;;;-56
2020/07/23 09:11:34;;;;;;;4.05;1.88;;;;;;;20.82;59.76;100474.91;;;;-59
2020/07/23 09:14:34;;;;;;;13.68;2.35;;;;;;;20.86;59.86;100473.44;;;;-57
2020/07/23 09:17:34;;;;;;;4.19;2.01;;;;;;;20.88;59.97;100472.39;;;;-61
2020/07/23 09:20:34;;;;;;;2.42;1.89;;;;;;;20.90;59.93;100476.14;;;;-53
2020/07/23 09:23:34;;;;;;;6.49;2.11;;;;;;;20.92;59.91;100471.47;;;;-53
2020/07/23 09:26:34;;;;;;;4.07;1.97;;;;;;;20.93;59.98;100469.44;;;;-58
2020/07/23 09:29:34;;;;;;;4.17;1.98;;;;;;;20.95;59.91;100471.23;;;;-60
2020/07/23 09:32:34;;;;;;;4.43;2.03;;;;;;;20.98;59.91;100464.14;;;;-61
2020/07/23 09:35:34;;;;;;;4.26;2.01;;;;;;;20.99;60.01;100461.23;;;;-63
2020/07/23 09:38:35;;;;;;;3.44;2.07;;;;;;;21.01;60.07;100459.84;;;;-60
2020/07/23 09:41:34;;;;;;;4.09;1.91;;;;;;;21.02;59.87;100460.32;;;;-58
2020/07/23 09:44:34;;;;;;;4.55;1.97;;;;;;;21.04;59.96;100452.49;;;;-58
2020/07/23 09:47:34;;;;;;;3.69;1.82;;;;;;;21.06;60.05;100452.82;;;;-62
2020/07/23 09:50:34;;;;;;;5.38;1.92;;;;;;;21.06;59.80;100446.73;;;;-56
2020/07/23 09:53:34;;;;;;;5.85;2.27;;;;;;;21.07;59.89;100446.31;;;;-55
2020/07/23 09:56:34;;;;;;;4.11;1.93;;;;;;;21.07;59.81;100446.80;;;;-56
2020/07/23 09:59:34;;;;;;;3.44;1.95;;;;;;;21.07;59.92;100447.86;;;;-56
2020/07/23 10:02:34;;;;;;;4.59;2.15;;;;;;;21.07;59.85;100445.41;;;;-56
2020/07/23 10:05:34;;;;;;;2.88;1.99;;;;;;;21.07;59.82;100443.45;;;;-55
2020/07/23 10:08:34;;;;;;;4.00;1.99;;;;;;;21.09;59.80;100441.92;;;;-55
2020/07/23 10:11:34;;;;;;;6.80;1.92;;;;;;;21.08;59.78;100445.10;;;;-56
2020/07/23 10:14:34;;;;;;;5.03;1.97;;;;;;;21.09;59.76;100438.91;;;;-56
2020/07/23 10:17:34;;;;;;;3.81;2.03;;;;;;;21.09;59.74;100441.75;;;;-55
2020/07/23 10:20:34;;;;;;;2.23;1.84;;;;;;;21.09;59.72;100435.39;;;;-56
2020/07/23 10:23:34;;;;;;;5.96;1.92;;;;;;;21.09;59.70;100432.30;;;;-56
2020/07/23 10:26:34;;;;;;;5.56;2.05;;;;;;;21.10;59.71;100433.58;;;;-55
2020/07/23 10:29:34;;;;;;;3.37;1.95;;;;;;;21.10;59.70;100429.67;;;;-56
2020/07/23 10:32:34;;;;;;;4.35;1.94;;;;;;;21.10;59.71;100423.48;;;;-55
2020/07/23 10:35:34;;;;;;;2.79;1.77;;;;;;;21.10;59.68;100420.22;;;;-56
2020/07/23 10:38:34;;;;;;;4.29;1.89;;;;;;;21.11;59.70;100418.20;;;;-56
2020/07/23 10:41:34;;;;;;;3.07;1.75;;;;;;;21.11;59.70;100416.41;;;;-55
2020/07/23 10:44:34;;;;;;;3.74;1.74;;;;;;;21.12;59.67;100416.23;;;;-55
2020/07/23 10:47:34;;;;;;;2.22;1.75;;;;;;;21.11;59.68;100413.15;;;;-56
2020/07/23 10:50:34;;;;;;;3.01;2.11;;;;;;;21.12;59.66;100407.75;;;;-55
2020/07/23 10:53:34;;;;;;;2.27;1.80;;;;;;;21.12;59.62;100399.69;;;;-55
2020/07/23 10:56:34;;;;;;;2.04;1.75;;;;;;;21.13;59.67;100393.27;;;;-56
2020/07/23 10:59:34;;;;;;;2.54;1.69;;;;;;;21.12;59.64;100394.14;;;;-56
2020/07/23 11:02:34;;;;;;;3.07;1.86;;;;;;;21.12;59.65;100395.05;;;;-56
2020/07/23 11:05:34;;;;;;;2.33;1.85;;;;;;;21.13;59.64;100387.16;;;;-56
2020/07/23 11:08:34;;;;;;;3.07;1.70;;;;;;;21.13;59.61;100375.91;;;;-55
2020/07/23 11:11:34;;;;;;;2.84;1.82;;;;;;;21.13;59.64;100382.02;;;;-56
2020/07/23 11:14:34;;;;;;;2.89;1.79;;;;;;;21.14;59.63;100382.25;;;;-55
2020/07/23 11:17:34;;;;;;;3.13;1.95;;;;;;;21.14;59.62;100373.28;;;;-56
2020/07/23 11:20:34;;;;;;;2.91;1.71;;;;;;;21.14;59.62;100373.77;;;;-56
2020/07/23 11:23:34;;;;;;;3.37;1.85;;;;;;;21.14;59.63;100371.32;;;;-56
2020/07/23 11:26:34;;;;;;;3.35;1.87;;;;;;;21.16;59.70;100362.44;;;;-58
2020/07/23 11:29:34;;;;;;;4.65;1.83;;;;;;;21.17;59.66;100361.97;;;;-63
2020/07/23 11:32:34;;;;;;;2.75;1.67;;;;;;;21.17;59.68;100361.80;;;;-62
2020/07/23 11:35:34;;;;;;;2.53;1.82;;;;;;;21.17;59.69;100355.61;;;;-64
2020/07/23 11:38:34;;;;;;;5.68;1.84;;;;;;;21.16;59.76;100351.76;;;;-64
2020/07/23 11:41:34;;;;;;;2.45;1.85;;;;;;;21.17;59.74;100355.29;;;;-63
2020/07/23 11:44:34;;;;;;;4.03;1.77;;;;;;;21.17;59.72;100359.68;;;;-62
2020/07/23 11:47:34;;;;;;;4.05;1.83;;;;;;;21.17;59.70;100349.58;;;;-63
2020/07/23 11:50:34;;;;;;;2.41;1.77;;;;;;;21.17;59.75;100344.20;;;;-54
2020/07/23 11:53:34;;;;;;;3.06;1.64;;;;;;;21.19;59.81;100339.06;;;;-59
2020/07/23 11:56:34;;;;;;;2.61;1.81;;;;;;;21.21;59.86;100333.77;;;;-60
2020/07/23 11:59:34;;;;;;;3.11;1.88;;;;;;;21.23;59.86;100335.55;;;;-62
2020/07/23 12:02:34;;;;;;;2.52;1.77;;;;;;;21.25;59.93;100333.23;;;;-50
2020/07/23 12:05:34;;;;;;;8.69;2.00;;;;;;;21.26;59.88;100332.18;;;;-54
2020/07/23 12:08:34;;;;;;;6.08;1.80;;;;;;;21.29;60.04;100330.05;;;;-56
2020/07/23 12:11:34;;;;;;;3.47;1.85;;;;;;;21.30;60.02;100330.46;;;;-55
2020/07/23 12:14:34;;;;;;;4.95;1.97;;;;;;;21.31;60.03;100326.29;;;;-54
2020/07/23 12:17:34;;;;;;;4.50;1.89;;;;;;;21.33;60.04;100330.52;;;;-55
2020/07/23 12:20:34;;;;;;;3.35;1.82;;;;;;;21.33;60.12;100317.64;;;;-51
2020/07/23 12:23:34;;;;;;;5.44;1.93;;;;;;;21.34;60.14;100323.93;;;;-53
2020/07/23 12:26:34;;;;;;;4.23;1.83;;;;;;;21.34;60.22;100309.58;;;;-57
2020/07/23 12:29:34;;;;;;;3.60;1.76;;;;;;;21.35;60.20;100308.42;;;;-56
2020/07/23 12:32:34;;;;;;;5.79;1.89;;;;;;;21.36;60.20;100307.30;;;;-52
2020/07/23 12:35:34;;;;;;;4.16;1.64;;;;;;;21.37;60.19;100309.06;;;;-55
2020/07/23 12:38:34;;;;;;;5.42;1.86;;;;;;;21.38;60.29;100303.05;;;;-55
2020/07/23 12:41:34;;;;;;;4.35;1.81;;;;;;;21.37;60.24;100297.77;;;;-58
2020/07/23 12:44:34;;;;;;;3.23;1.71;;;;;;;21.40;60.22;100298.80;;;;-55
2020/07/23 12:47:34;;;;;;;4.18;1.73;;;;;;;21.42;60.19;100298.39;;;;-54
2020/07/23 12:50:34;;;;;;;5.08;1.81;;;;;;;21.42;60.19;100299.45;;;;-52
2020/07/23 12:53:34;;;;;;;3.94;1.84;;;;;;;21.42;60.16;100306.88;;;;-51
2020/07/23 12:56:34;;;;;;;3.27;1.71;;;;;;;21.40;60.13;100296.34;;;;-52
2020/07/23 12:59:34;;;;;;;3.60;1.67;;;;;;;21.40;60.07;100289.52;;;;-52
2020/07/23 13:02:34;;;;;;;3.89;1.77;;;;;;;21.40;60.07;100291.80;;;;-52
2020/07/23 13:05:34;;;;;;;4.85;1.74;;;;;;;21.39;60.03;100290.72;;;;-52
2020/07/23 13:08:34;;;;;;;2.33;1.68;;;;;;;21.38;60.02;100289.42;;;;-52
2020/07/23 13:11:34;;;;;;;5.41;1.96;;;;;;;21.40;60.21;100287.06;;;;-55
2020/07/23 13:14:34;;;;;;;6.15;1.85;;;;;;;21.40;60.16;100278.98;;;;-53
2020/07/23 13:17:34;;;;;;;5.63;1.73;;;;;;;21.41;59.97;100276.77;;;;-49
2020/07/23 13:20:35;;;;;;;6.02;1.90;;;;;;;21.42;60.13;100271.59;;;;-57
2020/07/23 13:23:34;;;;;;;7.19;1.92;;;;;;;21.45;60.32;100271.33;;;;-61
2020/07/23 13:26:34;;;;;;;4.59;2.09;;;;;;;21.44;60.39;100265.96;;;;-59
2020/07/23 13:29:34;;;;;;;8.30;2.02;;;;;;;21.46;60.29;100264.57;;;;-54
2020/07/23 13:32:34;;;;;;;17.27;2.05;;;;;;;21.46;60.24;100263.42;;;;-51
2020/07/23 13:35:34;;;;;;;10.61;2.01;;;;;;;21.47;60.20;100258.10;;;;-53
2020/07/23 13:38:34;;;;;;;10.91;2.47;;;;;;;21.49;60.57;100260.30;;;;-48
2020/07/23 13:41:34;;;;;;;10.63;2.22;;;;;;;21.50;60.90;100260.69;;;;-51
2020/07/23 13:44:34;;;;;;;9.17;2.04;;;;;;;21.51;60.96;100258.82;;;;-53
2020/07/23 13:47:34;;;;;;;12.48;2.09;;;;;;;21.53;60.90;100246.83;;;;-52
2020/07/23 13:50:34;;;;;;;10.12;2.54;;;;;;;21.54;60.96;100239.98;;;;-58
2020/07/23 13:53:34;;;;;;;12.70;2.13;;;;;;;21.55;61.04;100237.59;;;;-53
2020/07/23 13:56:34;;;;;;;10.23;2.47;;;;;;;21.55;61.14;100231.64;;;;-50
2020/07/23 13:59:34;;;;;;;11.89;2.31;;;;;;;21.57;61.27;100234.72;;;;-50
2020/07/23 14:02:34;;;;;;;10.76;2.44;;;;;;;21.58;61.06;100228.47;;;;-50
2020/07/23 14:05:34;;;;;;;9.41;2.14;;;;;;;21.59;60.83;100233.25;;;;-52
2020/07/23 14:08:34;;;;;;;9.57;2.22;;;;;;;21.60;60.83;100233.72;;;;-55
2020/07/23 14:11:34;;;;;;;9.70;2.02;;;;;;;21.62;60.77;100232.90;;;;-53
2020/07/23 14:14:34;;;;;;;9.08;2.29;;;;;;;21.64;60.63;100223.11;;;;-51
2020/07/23 14:17:34;;;;;;;5.51;2.10;;;;;;;21.64;60.51;100224.51;;;;-57
2020/07/23 14:20:34;;;;;;;6.68;1.97;;;;;;;21.64;60.46;100223.05;;;;-51
2020/07/23 14:23:36;;;;;;;7.31;1.94;;;;;;;21.66;60.32;100221.47;;;;-46
2020/07/23 14:26:36;;;;;;;10.97;2.67;;;;;;;21.67;60.96;100212.66;;;;-54
2020/07/23 14:29:34;;;;;;;19.67;2.53;;;;;;;21.68;60.65;100219.97;;;;-56
2020/07/23 14:32:34;;;;;;;6.05;2.31;;;;;;;21.68;60.80;100215.09;;;;-47
2020/07/23 14:35:34;;;;;;;8.37;1.97;;;;;;;21.68;60.81;100207.98;;;;-50
2020/07/23 14:38:34;;;;;;;8.75;2.16;;;;;;;21.69;60.65;100200.58;;;;-51
2020/07/23 14:41:34;;;;;;;15.89;2.93;;;;;;;21.69;60.98;100200.74;;;;-53
2020/07/23 14:44:34;;;;;;;20.61;2.73;;;;;;;21.69;60.59;100198.79;;;;-50
2020/07/23 14:47:34;;;;;;;9.73;2.38;;;;;;;21.68;60.59;100197.95;;;;-50
2020/07/23 14:50:34;;;;;;;9.04;2.07;;;;;;;21.68;60.63;100203.26;;;;-51
2020/07/23 14:53:34;;;;;;;7.21;2.21;;;;;;;21.67;60.59;100197.81;;;;-50
2020/07/23 14:56:34;;;;;;;8.74;2.07;;;;;;;21.66;60.60;100191.19;;;;-50
2020/07/23 14:59:34;;;;;;;6.50;2.07;;;;;;;21.66;60.53;100193.00;;;;-51
2020/07/23 15:02:34;;;;;;;7.59;2.21;;;;;;;21.66;60.52;100189.56;;;;-51
2020/07/23 15:05:34;;;;;;;5.67;2.10;;;;;;;21.66;60.48;100184.91;;;;-51
2020/07/23 15:08:34;;;;;;;5.86;2.00;;;;;;;21.65;60.44;100177.19;;;;-50
2020/07/23 15:11:34;;;;;;;7.59;2.22;;;;;;;21.65;60.43;100173.52;;;;-51
2020/07/23 15:14:34;;;;;;;5.37;2.06;;;;;;;21.65;60.43;100172.87;;;;-51
2020/07/23 15:17:34;;;;;;;10.91;2.07;;;;;;;21.65;60.46;100167.17;;;;-53
2020/07/23 15:20:34;;;;;;;11.95;2.38;;;;;;;21.66;60.46;100156.79;;;;-59
2020/07/23 15:23:34;;;;;;;9.07;2.31;;;;;;;21.67;60.56;100161.29;;;;-62
2020/07/23 15:26:34;;;;;;;8.81;2.33;;;;;;;21.68;60.57;100156.45;;;;-60
2020/07/23 15:29:34;;;;;;;7.30;2.43;;;;;;;21.69;60.79;100149.59;;;;-60
2020/07/23 15:32:34;;;;;;;10.44;2.21;;;;;;;21.70;60.47;100149.73;;;;-61
2020/07/23 15:35:34;;;;;;;8.57;2.21;;;;;;;21.70;60.54;100147.38;;;;-61
2020/07/23 15:38:34;;;;;;;6.48;2.11;;;;;;;21.70;60.63;100153.50;;;;-62
2020/07/23 15:41:34;;;;;;;8.81;2.22;;;;;;;21.69;60.51;100147.07;;;;-62
2020/07/23 15:44:34;;;;;;;9.48;2.39;;;;;;;21.68;60.57;100134.99;;;;-61
2020/07/23 15:47:34;;;;;;;7.53;2.30;;;;;;;21.68;60.50;100132.88;;;;-62
2020/07/23 15:50:34;;;;;;;9.25;2.14;;;;;;;21.67;60.53;100135.02;;;;-62
2020/07/23 15:53:34;;;;;;;12.32;2.39;;;;;;;21.66;60.54;100132.89;;;;-63
2020/07/23 15:56:34;;;;;;;10.40;2.21;;;;;;;21.65;60.49;100127.93;;;;-62
2020/07/23 15:59:34;;;;;;;5.81;2.30;;;;;;;21.65;60.51;100134.94;;;;-63
2020/07/23 16:02:34;;;;;;;9.63;2.55;;;;;;;21.65;60.52;100134.47;;;;-62
2020/07/23 16:05:34;;;;;;;11.50;2.16;;;;;;;21.65;60.58;100132.27;;;;-60
2020/07/23 16:08:34;;;;;;;10.27;2.15;;;;;;;21.67;60.60;100137.15;;;;-60
2020/07/23 16:11:34;;;;;;;12.64;2.81;;;;;;;21.67;60.58;100132.89;;;;-61
2020/07/23 16:14:34;;;;;;;8.51;2.07;;;;;;;21.69;60.61;100128.89;;;;-50
2020/07/23 16:17:34;;;;;;;5.14;2.13;;;;;;;21.71;60.68;100122.27;;;;-58
2020/07/23 16:20:34;;;;;;;8.91;2.47;;;;;;;21.72;60.45;100126.48;;;;-52
2020/07/23 16:23:34;;;;;;;13.95;2.40;;;;;;;21.74;60.67;100126.31;;;;-50
2020/07/23 16:26:35;;;;;;;9.45;2.46;;;;;;;21.74;60.65;100123.38;;;;-54
2020/07/23 16:29:34;;;;;;;17.33;2.71;;;;;;;21.75;60.72;100124.44;;;;-50
2020/07/23 16:32:34;;;;;;;13.68;2.75;;;;;;;21.75;60.66;100122.55;;;;-49
2020/07/23 16:35:34;;;;;;;13.52;2.55;;;;;;;21.76;60.71;100116.98;;;;-49
2020/07/23 16:38:34;;;;;;;13.90;2.43;;;;;;;21.77;60.70;100119.20;;;;-53
2020/07/23 16:41:34;;;;;;;14.33;2.39;;;;;;;21.78;60.70;100115.76;;;;-47